createdAt,value
2023-05-21T00:00:15.376Z,1016.13
2023-05-21T00:01:15.354Z,1016.13
2023-05-21T00:02:15.345Z,1016.12
2023-05-21T00:03:15.487Z,1016.08
2023-05-21T00:04:15.400Z,1016.08
2023-05-21T00:05:15.494Z,1016.11
2023-05-21T00:06:15.665Z,1016.08
2023-05-21T00:07:15.520Z,1016.06
2023-05-21T00:08:15.588Z,1016.05
2023-05-21T00:09:15.570Z,1016.05
2023-05-21T00:10:15.602Z,1016.02
2023-05-21T00:11:15.639Z,1016.00
2023-05-21T00:12:15.679Z,1016.04
2023-05-21T00:13:15.704Z,1016.01
2023-05-21T00:14:15.756Z,1016.03
2023-05-21T00:15:15.781Z,1015.98
2023-05-21T00:16:15.847Z,1016.00
2023-05-21T00:17:15.845Z,1016.00
2023-05-21T00:18:15.877Z,1015.97
2023-05-21T00:19:15.969Z,1015.96
2023-05-21T00:20:15.967Z,1015.95
2023-05-21T00:21:15.979Z,1015.98
2023-05-21T00:22:16.019Z,1016.01
2023-05-21T00:23:16.048Z,1015.98
2023-05-21T00:24:16.088Z,1015.97
2023-05-21T00:25:16.147Z,1015.94
2023-05-21T00:26:16.188Z,1015.94
2023-05-21T00:27:16.189Z,1015.94
2023-05-21T00:28:16.220Z,1015.92
2023-05-21T00:29:16.257Z,1015.92
2023-05-21T00:30:16.295Z,1015.88
2023-05-21T00:31:16.346Z,1015.85
2023-05-21T00:32:16.362Z,1015.86
2023-05-21T00:33:16.386Z,1015.88
2023-05-21T00:34:16.425Z,1015.83
2023-05-21T00:35:16.527Z,1015.85
2023-05-21T00:36:16.495Z,1015.85
2023-05-21T00:37:16.534Z,1015.84
2023-05-21T00:38:16.565Z,1015.81
2023-05-21T00:39:16.591Z,1015.84
2023-05-21T00:40:16.624Z,1015.85
2023-05-21T00:41:16.657Z,1015.88
2023-05-21T00:42:16.695Z,1015.81
2023-05-21T00:43:16.725Z,1015.81
2023-05-21T00:44:16.761Z,1015.82
2023-05-21T00:45:16.797Z,1015.81
2023-05-21T00:46:16.888Z,1015.82
2023-05-21T00:47:16.864Z,1015.78
2023-05-21T00:48:16.910Z,1015.81
2023-05-21T00:49:16.987Z,1015.79
2023-05-21T00:50:16.977Z,1015.76
2023-05-21T00:51:17.004Z,1015.76
2023-05-21T00:52:17.060Z,1015.73
2023-05-21T00:53:17.069Z,1015.76
2023-05-21T00:54:17.103Z,1015.74
2023-05-21T00:55:17.136Z,1015.72
2023-05-21T00:56:17.169Z,1015.72
2023-05-21T00:57:17.209Z,1015.65
2023-05-21T00:58:17.239Z,1015.68
2023-05-21T00:59:17.266Z,1015.69
2023-05-21T01:00:17.303Z,1015.67
2023-05-21T01:01:17.416Z,1015.68
2023-05-21T01:02:17.404Z,1015.64
2023-05-21T01:03:17.519Z,1015.66
2023-05-21T01:04:17.441Z,1015.67
2023-05-21T01:05:17.472Z,1015.66
2023-05-21T01:06:17.512Z,1015.64
2023-05-21T01:07:17.556Z,1015.66
2023-05-21T01:08:17.580Z,1015.65
2023-05-21T01:09:17.612Z,1015.65
2023-05-21T01:10:17.645Z,1015.64
2023-05-21T01:11:17.678Z,1015.61
2023-05-21T01:12:17.710Z,1015.61
2023-05-21T01:13:17.757Z,1015.63
2023-05-21T01:14:17.786Z,1015.59
2023-05-21T01:15:17.808Z,1015.60
2023-05-21T01:16:17.953Z,1015.60
2023-05-21T01:17:17.879Z,1015.58
2023-05-21T01:18:17.958Z,1015.57
2023-05-21T01:19:18.073Z,1015.57
2023-05-21T01:20:18.028Z,1015.56
2023-05-21T01:21:18.010Z,1015.52
2023-05-21T01:22:18.049Z,1015.55
2023-05-21T01:23:18.082Z,1015.56
2023-05-21T01:24:18.116Z,1015.53
2023-05-21T01:25:18.155Z,1015.54
2023-05-21T01:26:18.184Z,1015.57
2023-05-21T01:27:18.215Z,1015.54
2023-05-21T01:28:18.258Z,1015.57
2023-05-21T01:29:18.287Z,1015.52
2023-05-21T01:30:18.326Z,1015.55
2023-05-21T01:31:18.364Z,1015.55
2023-05-21T01:32:18.384Z,1015.56
2023-05-21T01:33:18.491Z,1015.55
2023-05-21T01:34:18.457Z,1015.56
2023-05-21T01:35:18.488Z,1015.53
2023-05-21T01:36:18.523Z,1015.51
2023-05-21T01:37:18.554Z,1015.54
2023-05-21T01:38:18.593Z,1015.50
2023-05-21T01:39:18.626Z,1015.53
2023-05-21T01:40:18.669Z,1015.53
2023-05-21T01:41:18.694Z,1015.54
2023-05-21T01:42:18.727Z,1015.54
2023-05-21T01:43:18.761Z,1015.56
2023-05-21T01:44:18.829Z,1015.52
2023-05-21T01:45:18.825Z,1015.53
2023-05-21T01:46:18.942Z,1015.51
2023-05-21T01:47:18.945Z,1015.54
2023-05-21T01:48:18.935Z,1015.55
2023-05-21T01:49:18.976Z,1015.53
2023-05-21T01:50:19.027Z,1015.50
2023-05-21T01:51:19.033Z,1015.53
2023-05-21T01:52:19.066Z,1015.50
2023-05-21T01:53:19.104Z,1015.52
2023-05-21T01:54:19.138Z,1015.47
2023-05-21T01:55:19.176Z,1015.49
2023-05-21T01:56:19.206Z,1015.46
2023-05-21T01:57:19.237Z,1015.43
2023-05-21T01:58:19.266Z,1015.43
2023-05-21T01:59:19.393Z,1015.39
2023-05-21T02:00:19.373Z,1015.43
2023-05-21T02:01:19.388Z,1015.39
2023-05-21T02:02:19.425Z,1015.42
2023-05-21T02:03:19.578Z,1015.44
2023-05-21T02:04:19.473Z,1015.42
2023-05-21T02:05:19.510Z,1015.47
2023-05-21T02:06:19.540Z,1015.42
2023-05-21T02:07:19.578Z,1015.44
2023-05-21T02:08:19.629Z,1015.39
2023-05-21T02:09:19.640Z,1015.39
2023-05-21T02:10:19.684Z,1015.39
2023-05-21T02:11:19.720Z,1015.39
2023-05-21T02:12:19.749Z,1015.38
2023-05-21T02:13:19.783Z,1015.40
2023-05-21T02:14:19.813Z,1015.38
2023-05-21T02:15:19.861Z,1015.37
2023-05-21T02:16:19.977Z,1015.37
2023-05-21T02:17:19.923Z,1015.33
2023-05-21T02:18:19.955Z,1015.37
2023-05-21T02:19:20.017Z,1015.35
2023-05-21T02:20:20.014Z,1015.35
2023-05-21T02:21:20.047Z,1015.36
2023-05-21T02:22:20.079Z,1015.33
2023-05-21T02:23:20.156Z,1015.31
2023-05-21T02:24:20.156Z,1015.33
2023-05-21T02:25:20.184Z,1015.33
2023-05-21T02:26:20.216Z,1015.32
2023-05-21T02:27:20.253Z,1015.30
2023-05-21T02:28:20.289Z,1015.27
2023-05-21T02:29:20.326Z,1015.27
2023-05-21T02:30:20.355Z,1015.30
2023-05-21T02:31:20.391Z,1015.28
2023-05-21T02:32:20.422Z,1015.28
2023-05-21T02:33:20.463Z,1015.29
2023-05-21T02:34:20.831Z,1015.27
2023-05-21T02:35:20.523Z,1015.26
2023-05-21T02:36:20.559Z,1015.27
2023-05-21T02:37:20.596Z,1015.25
2023-05-21T02:38:20.622Z,1015.24
2023-05-21T02:39:20.657Z,1015.25
2023-05-21T02:40:20.694Z,1015.24
2023-05-21T02:41:20.726Z,1015.27
2023-05-21T02:42:20.758Z,1015.24
2023-05-21T02:43:20.816Z,1015.23
2023-05-21T02:44:20.849Z,1015.22
2023-05-21T02:45:20.857Z,1015.22
2023-05-21T02:46:20.960Z,1015.22
2023-05-21T02:47:20.927Z,1015.23
2023-05-21T02:48:20.959Z,1015.16
2023-05-21T02:49:20.997Z,1015.22
2023-05-21T02:50:21.063Z,1015.20
2023-05-21T02:51:21.082Z,1015.20
2023-05-21T02:52:21.093Z,1015.22
2023-05-21T02:53:21.125Z,1015.22
2023-05-21T02:54:21.158Z,1015.20
2023-05-21T02:55:21.198Z,1015.17
2023-05-21T02:56:21.239Z,1015.18
2023-05-21T02:57:21.274Z,1015.16
2023-05-21T02:58:21.292Z,1015.15
2023-05-21T02:59:21.328Z,1015.16
2023-05-21T03:00:21.360Z,1015.13
2023-05-21T03:01:21.438Z,1015.10
2023-05-21T03:02:21.511Z,1015.13
2023-05-21T03:03:21.653Z,1015.08
2023-05-21T03:04:21.492Z,1015.05
2023-05-21T03:05:21.546Z,1015.08
2023-05-21T03:06:21.564Z,1015.08
2023-05-21T03:07:21.604Z,1015.08
2023-05-21T03:08:21.625Z,1015.06
2023-05-21T03:09:21.665Z,1015.07
2023-05-21T03:10:21.730Z,1015.08
2023-05-21T03:11:21.730Z,1015.09
2023-05-21T03:12:21.774Z,1015.09
2023-05-21T03:13:21.814Z,1015.05
2023-05-21T03:14:21.839Z,1015.10
2023-05-21T03:15:21.863Z,1015.06
2023-05-21T03:16:21.977Z,1015.06
2023-05-21T03:17:21.932Z,1015.08
2023-05-21T03:18:21.965Z,1015.09
2023-05-21T03:19:22.099Z,1015.12
2023-05-21T03:20:22.031Z,1015.09
2023-05-21T03:21:22.064Z,1015.06
2023-05-21T03:22:22.106Z,1015.09
2023-05-21T03:23:22.134Z,1015.09
2023-05-21T03:24:22.167Z,1015.05
2023-05-21T03:25:22.206Z,1015.04
2023-05-21T03:26:22.234Z,1015.07
2023-05-21T03:27:22.279Z,1015.04
2023-05-21T03:28:22.304Z,1015.06
2023-05-21T03:29:22.337Z,1015.08
2023-05-21T03:30:22.384Z,1015.06
2023-05-21T03:31:22.494Z,1015.05
2023-05-21T03:32:22.808Z,1015.08
2023-05-21T03:33:22.468Z,1015.12
2023-05-21T03:34:22.502Z,1015.09
2023-05-21T03:35:22.540Z,1015.11
2023-05-21T03:36:22.575Z,1015.07
2023-05-21T03:37:22.605Z,1015.14
2023-05-21T03:38:22.644Z,1015.08
2023-05-21T03:39:22.681Z,1015.10
2023-05-21T03:40:22.706Z,1015.12
2023-05-21T03:41:22.758Z,1015.13
2023-05-21T03:42:22.772Z,1015.14
2023-05-21T03:43:22.817Z,1015.18
2023-05-21T03:44:22.840Z,1015.14
2023-05-21T03:45:22.874Z,1015.17
2023-05-21T03:46:22.917Z,1015.19
2023-05-21T03:47:22.989Z,1015.19
2023-05-21T03:48:23.116Z,1015.15
2023-05-21T03:49:23.008Z,1015.14
2023-05-21T03:50:23.052Z,1015.18
2023-05-21T03:51:23.084Z,1015.16
2023-05-21T03:52:23.112Z,1015.19
2023-05-21T03:53:23.142Z,1015.21
2023-05-21T03:54:23.200Z,1015.22
2023-05-21T03:55:23.212Z,1015.21
2023-05-21T03:56:23.248Z,1015.22
2023-05-21T03:57:23.279Z,1015.21
2023-05-21T03:58:23.311Z,1015.22
2023-05-21T03:59:23.346Z,1015.19
2023-05-21T04:00:23.377Z,1015.21
2023-05-21T04:01:23.416Z,1015.22
2023-05-21T04:02:23.607Z,1015.19
2023-05-21T04:03:23.617Z,1015.21
2023-05-21T04:04:23.562Z,1015.19
2023-05-21T04:05:23.547Z,1015.15
2023-05-21T04:06:23.590Z,1015.24
2023-05-21T04:07:23.616Z,1015.24
2023-05-21T04:08:23.651Z,1015.22
2023-05-21T04:09:23.689Z,1015.23
2023-05-21T04:10:23.717Z,1015.20
2023-05-21T04:11:23.755Z,1015.22
2023-05-21T04:12:23.789Z,1015.24
2023-05-21T04:13:23.818Z,1015.26
2023-05-21T04:14:23.850Z,1015.28
2023-05-21T04:15:23.889Z,1015.27
2023-05-21T04:16:23.967Z,1015.29
2023-05-21T04:17:23.980Z,1015.30
2023-05-21T04:18:24.009Z,1015.25
2023-05-21T04:19:24.062Z,1015.28
2023-05-21T04:20:24.063Z,1015.30
2023-05-21T04:21:24.097Z,1015.31
2023-05-21T04:22:24.134Z,1015.30
2023-05-21T04:23:24.160Z,1015.34
2023-05-21T04:24:24.198Z,1015.36
2023-05-21T04:25:24.226Z,1015.38
2023-05-21T04:26:24.262Z,1015.35
2023-05-21T04:27:24.290Z,1015.39
2023-05-21T04:28:24.323Z,1015.43
2023-05-21T04:29:24.359Z,1015.41
2023-05-21T04:30:24.406Z,1015.41
2023-05-21T04:31:24.474Z,1015.40
2023-05-21T04:32:24.504Z,1015.38
2023-05-21T04:33:24.544Z,1015.41
2023-05-21T04:34:24.531Z,1015.39
2023-05-21T04:35:24.565Z,1015.40
2023-05-21T04:36:24.597Z,1015.39
2023-05-21T04:37:24.648Z,1015.36
2023-05-21T04:38:24.668Z,1015.35
2023-05-21T04:39:24.695Z,1015.37
2023-05-21T04:40:24.729Z,1015.41
2023-05-21T04:41:24.765Z,1015.37
2023-05-21T04:42:24.799Z,1015.38
2023-05-21T04:43:24.834Z,1015.39
2023-05-21T04:44:24.895Z,1015.39
2023-05-21T04:45:24.905Z,1015.38
2023-05-21T04:46:24.952Z,1015.41
2023-05-21T04:47:24.992Z,1015.39
2023-05-21T04:48:25.126Z,1015.38
2023-05-21T04:49:25.041Z,1015.38
2023-05-21T04:50:25.072Z,1015.42
2023-05-21T04:51:25.105Z,1015.43
2023-05-21T04:52:25.277Z,1015.39
2023-05-21T04:53:25.179Z,1015.40
2023-05-21T04:54:25.223Z,1015.43
2023-05-21T04:55:25.241Z,1015.44
2023-05-21T04:56:25.277Z,1015.41
2023-05-21T04:57:25.309Z,1015.40
2023-05-21T04:58:25.344Z,1015.42
2023-05-21T04:59:25.386Z,1015.37
2023-05-21T05:00:25.419Z,1015.40
2023-05-21T05:01:25.473Z,1015.38
2023-05-21T05:02:25.493Z,1015.38
2023-05-21T05:03:25.579Z,1015.39
2023-05-21T05:04:25.558Z,1015.35
2023-05-21T05:05:25.675Z,1015.34
2023-05-21T05:06:25.618Z,1015.37
2023-05-21T05:07:25.655Z,1015.38
2023-05-21T05:08:25.689Z,1015.35
2023-05-21T05:09:25.725Z,1015.37
2023-05-21T05:10:25.759Z,1015.37
2023-05-21T05:11:25.793Z,1015.36
2023-05-21T05:12:25.825Z,1015.32
2023-05-21T05:13:25.876Z,1015.31
2023-05-21T05:14:25.915Z,1015.33
2023-05-21T05:15:25.928Z,1015.33
2023-05-21T05:16:26.257Z,1015.38
2023-05-21T05:17:26.032Z,1015.34
2023-05-21T05:18:26.030Z,1015.36
2023-05-21T05:19:26.104Z,1015.37
2023-05-21T05:20:26.105Z,1015.41
2023-05-21T05:21:26.143Z,1015.42
2023-05-21T05:22:26.180Z,1015.34
2023-05-21T05:23:26.201Z,1015.41
2023-05-21T05:24:26.244Z,1015.43
2023-05-21T05:25:26.274Z,1015.43
2023-05-21T05:26:26.302Z,1015.39
2023-05-21T05:27:26.341Z,1015.40
2023-05-21T05:28:26.384Z,1015.43
2023-05-21T05:29:26.410Z,1015.45
2023-05-21T05:30:26.444Z,1015.44
2023-05-21T05:31:26.523Z,1015.44
2023-05-21T05:32:26.575Z,1015.44
2023-05-21T05:33:26.550Z,1015.46
2023-05-21T05:34:26.586Z,1015.44
2023-05-21T05:35:26.616Z,1015.43
2023-05-21T05:36:26.651Z,1015.41
2023-05-21T05:37:26.684Z,1015.40
2023-05-21T05:38:26.720Z,1015.40
2023-05-21T05:39:26.754Z,1015.44
2023-05-21T05:40:26.811Z,1015.45
2023-05-21T05:41:26.822Z,1015.41
2023-05-21T05:42:26.868Z,1015.39
2023-05-21T05:43:26.897Z,1015.43
2023-05-21T05:44:26.926Z,1015.39
2023-05-21T05:45:26.967Z,1015.40
2023-05-21T05:46:27.082Z,1015.40
2023-05-21T05:47:27.073Z,1015.39
2023-05-21T05:48:27.072Z,1015.43
2023-05-21T05:49:27.097Z,1015.36
2023-05-21T05:50:27.140Z,1015.39
2023-05-21T05:51:27.171Z,1015.42
2023-05-21T05:52:27.206Z,1015.39
2023-05-21T05:53:27.235Z,1015.39
2023-05-21T05:54:27.274Z,1015.39
2023-05-21T05:55:27.308Z,1015.38
2023-05-21T05:56:27.345Z,1015.38
2023-05-21T05:57:27.378Z,1015.38
2023-05-21T05:58:27.414Z,1015.35
2023-05-21T05:59:27.497Z,1015.36
2023-05-21T06:00:27.486Z,1015.34
2023-05-21T06:01:27.525Z,1015.34
2023-05-21T06:02:27.686Z,1015.32
2023-05-21T06:03:27.716Z,1015.35
2023-05-21T06:04:27.641Z,1015.35
2023-05-21T06:05:27.706Z,1015.34
2023-05-21T06:06:27.693Z,1015.31
2023-05-21T06:07:27.728Z,1015.29
2023-05-21T06:08:27.768Z,1015.30
2023-05-21T06:09:27.816Z,1015.32
2023-05-21T06:10:27.842Z,1015.28
2023-05-21T06:11:27.870Z,1015.30
2023-05-21T06:12:27.920Z,1015.34
2023-05-21T06:13:27.936Z,1015.34
2023-05-21T06:14:27.974Z,1015.33
2023-05-21T06:15:28.003Z,1015.33
2023-05-21T06:16:28.079Z,1015.30
2023-05-21T06:17:28.102Z,1015.33
2023-05-21T06:18:28.145Z,1015.35
2023-05-21T06:19:28.230Z,1015.33
2023-05-21T06:20:28.196Z,1015.27
2023-05-21T06:21:28.220Z,1015.30
2023-05-21T06:22:28.259Z,1015.27
2023-05-21T06:23:28.288Z,1015.25
2023-05-21T06:24:28.344Z,1015.25
2023-05-21T06:25:28.356Z,1015.25
2023-05-21T06:26:28.393Z,1015.24
2023-05-21T06:27:28.429Z,1015.27
2023-05-21T06:28:28.561Z,1015.26
2023-05-21T06:29:28.506Z,1015.22
2023-05-21T06:30:28.589Z,1015.25
2023-05-21T06:31:28.575Z,1015.21
2023-05-21T06:32:28.720Z,1015.22
2023-05-21T06:33:28.871Z,1015.26
2023-05-21T06:34:28.680Z,1015.26
2023-05-21T06:35:28.710Z,1015.26
2023-05-21T06:36:28.754Z,1015.24
2023-05-21T06:37:28.790Z,1015.24
2023-05-21T06:38:28.826Z,1015.21
2023-05-21T06:39:28.865Z,1015.23
2023-05-21T06:40:28.890Z,1015.25
2023-05-21T06:41:28.926Z,1015.22
2023-05-21T06:42:28.960Z,1015.22
2023-05-21T06:43:29.002Z,1015.23
2023-05-21T06:44:29.040Z,1015.25
2023-05-21T06:45:29.117Z,1015.26
2023-05-21T06:46:29.223Z,1015.20
2023-05-21T06:47:29.169Z,1015.23
2023-05-21T06:48:29.180Z,1015.19
2023-05-21T06:49:29.215Z,1015.24
2023-05-21T06:50:29.247Z,1015.22
2023-05-21T06:51:29.282Z,1015.25
2023-05-21T06:52:29.317Z,1015.26
2023-05-21T06:53:29.359Z,1015.19
2023-05-21T06:54:29.386Z,1015.19
2023-05-21T06:55:29.440Z,1015.24
2023-05-21T06:56:29.465Z,1015.17
2023-05-21T06:57:29.501Z,1015.19
2023-05-21T06:58:29.531Z,1015.17
2023-05-21T06:59:29.564Z,1015.19
2023-05-21T07:00:29.604Z,1015.19
2023-05-21T07:01:29.693Z,1015.20
2023-05-21T07:02:29.844Z,1015.16
2023-05-21T07:03:29.824Z,1015.14
2023-05-21T07:04:29.744Z,1015.18
2023-05-21T07:05:29.778Z,1015.17
2023-05-21T07:06:29.820Z,1015.14
2023-05-21T07:07:29.852Z,1015.17
2023-05-21T07:08:29.890Z,1015.16
2023-05-21T07:09:29.923Z,1015.19
2023-05-21T07:10:29.959Z,1015.20
2023-05-21T07:11:29.993Z,1015.20
2023-05-21T07:12:30.034Z,1015.18
2023-05-21T07:13:30.065Z,1015.19
2023-05-21T07:14:30.095Z,1015.20
2023-05-21T07:15:30.132Z,1015.19
2023-05-21T07:16:30.240Z,1015.18
2023-05-21T07:17:30.254Z,1015.19
2023-05-21T07:18:30.243Z,1015.19
2023-05-21T07:19:30.297Z,1015.13
2023-05-21T07:20:30.327Z,1015.16
2023-05-21T07:21:30.347Z,1015.17
2023-05-21T07:22:30.384Z,1015.16
2023-05-21T07:23:30.431Z,1015.13
2023-05-21T07:24:30.460Z,1015.18
2023-05-21T07:25:30.520Z,1015.11
2023-05-21T07:26:30.606Z,1015.15
2023-05-21T07:27:30.561Z,1015.18
2023-05-21T07:28:30.601Z,1015.16
2023-05-21T07:29:30.634Z,1015.15
2023-05-21T07:30:30.673Z,1015.15
2023-05-21T07:31:30.728Z,1015.12
2023-05-21T07:32:30.768Z,1015.10
2023-05-21T07:33:30.781Z,1015.11
2023-05-21T07:34:30.820Z,1015.06
2023-05-21T07:35:30.856Z,1015.12
2023-05-21T07:36:30.893Z,1015.10
2023-05-21T07:37:30.942Z,1015.06
2023-05-21T07:38:30.972Z,1015.06
2023-05-21T07:39:31.000Z,1015.14
2023-05-21T07:40:31.035Z,1015.11
2023-05-21T07:41:31.073Z,1015.17
2023-05-21T07:42:31.113Z,1015.09
2023-05-21T07:43:31.144Z,1015.12
2023-05-21T07:44:31.186Z,1015.13
2023-05-21T07:45:31.214Z,1015.10
2023-05-21T07:46:31.297Z,1015.07
2023-05-21T07:47:31.339Z,1015.07
2023-05-21T07:48:32.548Z,1015.13
2023-05-21T07:49:31.378Z,1015.09
2023-05-21T07:50:31.419Z,1015.09
2023-05-21T07:51:31.440Z,1015.07
2023-05-21T07:52:31.503Z,1015.07
2023-05-21T07:53:31.506Z,1015.05
2023-05-21T07:54:31.563Z,1015.04
2023-05-21T07:55:31.581Z,1015.01
2023-05-21T07:56:31.625Z,1015.07
2023-05-21T07:57:31.655Z,1015.01
2023-05-21T07:58:31.696Z,1015.00
2023-05-21T07:59:31.738Z,1015.01
2023-05-21T08:00:31.772Z,1015.05
2023-05-21T08:01:31.886Z,1015.01
2023-05-21T08:02:31.908Z,1015.03
2023-05-21T08:03:32.108Z,1015.04
2023-05-21T08:04:32.016Z,1015.12
2023-05-21T08:05:31.955Z,1015.05
2023-05-21T08:06:31.986Z,1015.04
2023-05-21T08:07:32.031Z,1015.03
2023-05-21T08:08:32.064Z,1015.04
2023-05-21T08:09:32.099Z,1015.07
2023-05-21T08:10:32.143Z,1015.05
2023-05-21T08:11:32.173Z,1015.05
2023-05-21T08:12:32.210Z,1014.98
2023-05-21T08:13:32.252Z,1014.99
2023-05-21T08:14:32.286Z,1015.00
2023-05-21T08:15:32.323Z,1015.04
2023-05-21T08:16:32.416Z,1015.04
2023-05-21T08:17:32.431Z,1015.07
2023-05-21T08:18:32.438Z,1015.03
2023-05-21T08:19:32.575Z,1015.01
2023-05-21T08:20:32.516Z,1015.00
2023-05-21T08:21:32.544Z,1015.04
2023-05-21T08:22:32.583Z,1015.04
2023-05-21T08:23:32.624Z,1014.99
2023-05-21T08:24:32.665Z,1015.02
2023-05-21T08:25:32.692Z,1015.03
2023-05-21T08:26:32.736Z,1014.99
2023-05-21T08:27:32.769Z,1015.04
2023-05-21T08:28:32.809Z,1015.01
2023-05-21T08:29:32.843Z,1015.01
2023-05-21T08:30:32.881Z,1015.03
2023-05-21T08:31:33.022Z,1015.03
2023-05-21T08:32:32.988Z,1015.05
2023-05-21T08:33:32.996Z,1014.99
2023-05-21T08:34:33.036Z,1015.02
2023-05-21T08:35:33.073Z,1015.01
2023-05-21T08:36:33.112Z,1015.05
2023-05-21T08:37:33.147Z,1015.02
2023-05-21T08:38:33.202Z,1015.07
2023-05-21T08:39:33.231Z,1015.02
2023-05-21T08:40:33.259Z,1015.03
2023-05-21T08:41:33.298Z,1014.99
2023-05-21T08:43:33.383Z,1015.03
2023-05-21T08:44:33.410Z,1015.01
2023-05-21T08:45:33.483Z,1015.05
2023-05-21T08:46:33.526Z,1015.05
2023-05-21T08:47:33.543Z,1015.07
2023-05-21T08:48:33.569Z,1015.05
2023-05-21T08:49:33.602Z,1015.04
2023-05-21T08:50:33.641Z,1015.07
2023-05-21T08:51:33.672Z,1015.01
2023-05-21T08:52:33.720Z,1015.06
2023-05-21T08:53:33.753Z,1015.04
2023-05-21T08:54:33.791Z,1014.99
2023-05-21T08:55:33.849Z,1014.98
2023-05-21T08:56:33.872Z,1015.05
2023-05-21T08:57:33.912Z,1014.99
2023-05-21T08:58:33.946Z,1015.02
2023-05-21T08:59:33.983Z,1014.98
2023-05-21T09:00:34.021Z,1015.01
2023-05-21T09:01:34.067Z,1014.99
2023-05-21T09:02:34.151Z,1014.98
2023-05-21T09:03:34.151Z,1014.98
2023-05-21T09:04:34.225Z,1014.99
2023-05-21T09:05:34.267Z,1015.00
2023-05-21T09:06:34.252Z,1014.98
2023-05-21T09:07:34.293Z,1014.96
2023-05-21T09:08:34.424Z,1014.97
2023-05-21T09:09:34.385Z,1014.90
2023-05-21T09:10:34.416Z,1014.96
2023-05-21T09:11:34.443Z,1015.00
2023-05-21T09:12:34.490Z,1014.96
2023-05-21T09:13:35.423Z,1015.07
2023-05-21T09:14:34.559Z,1015.01
2023-05-21T09:15:34.768Z,1015.03
2023-05-21T09:16:34.731Z,1015.02
2023-05-21T09:17:34.742Z,1014.98
2023-05-21T09:18:34.719Z,1014.99
2023-05-21T09:19:34.899Z,1015.03
2023-05-21T09:20:34.809Z,1015.06
2023-05-21T09:21:34.831Z,1015.00
2023-05-21T09:22:34.874Z,1015.05
2023-05-21T09:23:34.916Z,1014.99
2023-05-21T09:24:36.476Z,1015.03
2023-05-21T09:25:35.217Z,1015.02
2023-05-21T09:26:35.059Z,1015.01
2023-05-21T09:27:35.069Z,1015.04
2023-05-21T09:28:35.104Z,1014.97
2023-05-21T09:29:35.175Z,1014.97
2023-05-21T09:30:36.302Z,1014.95
2023-05-21T09:31:35.234Z,1014.93
2023-05-21T09:32:35.328Z,1014.99
2023-05-21T09:33:35.354Z,1014.93
2023-05-21T09:34:35.350Z,1014.94
2023-05-21T09:35:36.229Z,1014.93
2023-05-21T09:36:35.420Z,1014.88
2023-05-21T09:37:35.461Z,1014.90
2023-05-21T09:38:35.510Z,1014.87
2023-05-21T09:39:35.538Z,1014.86
2023-05-21T09:40:36.025Z,1014.78
2023-05-21T09:41:35.632Z,1014.80
2023-05-21T09:42:35.656Z,1014.80
2023-05-21T09:43:35.698Z,1014.81
2023-05-21T09:44:35.730Z,1014.82
2023-05-21T09:45:35.930Z,1014.88
2023-05-21T09:46:35.843Z,1014.80
2023-05-21T09:47:35.880Z,1014.80
2023-05-21T09:48:35.891Z,1014.84
2023-05-21T09:49:35.930Z,1014.82
2023-05-21T09:50:36.260Z,1014.85
2023-05-21T09:51:36.009Z,1014.84
2023-05-21T09:52:36.048Z,1014.87
2023-05-21T09:53:36.086Z,1014.86
2023-05-21T09:54:36.146Z,1014.84
2023-05-21T09:55:36.177Z,1014.85
2023-05-21T09:56:36.222Z,1014.83
2023-05-21T09:57:36.245Z,1014.83
2023-05-21T09:58:36.290Z,1014.82
2023-05-21T09:59:36.326Z,1014.89
2023-05-21T10:00:36.558Z,1014.81
2023-05-21T10:01:36.473Z,1014.85
2023-05-21T10:02:36.498Z,1014.80
2023-05-21T10:03:36.487Z,1014.78
2023-05-21T10:04:36.555Z,1014.82
2023-05-21T10:05:36.567Z,1014.77
2023-05-21T10:06:36.614Z,1014.79
2023-05-21T10:07:36.650Z,1014.74
2023-05-21T10:08:36.688Z,1014.70
2023-05-21T10:09:36.725Z,1014.74
2023-05-21T10:10:36.890Z,1014.68
2023-05-21T10:11:36.810Z,1014.72
2023-05-21T10:12:36.864Z,1014.71
2023-05-21T10:13:36.888Z,1014.68
2023-05-21T10:14:36.940Z,1014.66
2023-05-21T10:15:36.968Z,1014.64
2023-05-21T10:16:37.191Z,1014.66
2023-05-21T10:17:37.074Z,1014.62
2023-05-21T10:18:37.091Z,1014.66
2023-05-21T10:19:37.132Z,1014.62
2023-05-21T10:20:37.547Z,1014.61
2023-05-21T10:21:37.211Z,1014.64
2023-05-21T10:22:37.258Z,1014.57
2023-05-21T10:23:37.290Z,1014.61
2023-05-21T10:24:37.332Z,1014.58
2023-05-21T10:25:37.378Z,1014.61
2023-05-21T10:26:37.418Z,1014.57
2023-05-21T10:27:37.453Z,1014.52
2023-05-21T10:28:37.502Z,1014.49
2023-05-21T10:29:37.539Z,1014.51
2023-05-21T10:30:37.944Z,1014.54
2023-05-21T10:31:37.623Z,1014.59
2023-05-21T10:32:37.833Z,1014.49
2023-05-21T10:33:37.815Z,1014.50
2023-05-21T10:34:37.753Z,1014.49
2023-05-21T10:35:38.031Z,1014.52
2023-05-21T10:36:37.819Z,1014.51
2023-05-21T10:37:37.869Z,1014.53
2023-05-21T10:38:37.913Z,1014.53
2023-05-21T10:39:37.949Z,1014.45
2023-05-21T10:40:38.160Z,1014.47
2023-05-21T10:41:38.031Z,1014.50
2023-05-21T10:42:38.071Z,1014.51
2023-05-21T10:43:38.132Z,1014.46
2023-05-21T10:44:38.161Z,1014.43
2023-05-21T10:45:38.259Z,1014.44
2023-05-21T10:46:38.235Z,1014.43
2023-05-21T10:47:38.349Z,1014.41
2023-05-21T10:48:38.320Z,1014.41
2023-05-21T10:49:38.356Z,1014.43
2023-05-21T10:50:38.672Z,1014.38
2023-05-21T10:51:38.443Z,1014.35
2023-05-21T10:52:38.490Z,1014.36
2023-05-21T10:53:38.547Z,1014.36
2023-05-21T10:54:38.594Z,1014.39
2023-05-21T10:55:38.607Z,1014.35
2023-05-21T10:56:38.649Z,1014.32
2023-05-21T10:57:38.713Z,1014.34
2023-05-21T10:58:38.733Z,1014.34
2023-05-21T10:59:38.775Z,1014.29
2023-05-21T11:00:38.979Z,1014.33
2023-05-21T11:01:38.953Z,1014.29
2023-05-21T11:02:38.986Z,1014.26
2023-05-21T11:03:39.079Z,1014.38
2023-05-21T11:04:38.984Z,1014.31
2023-05-21T11:05:39.025Z,1014.32
2023-05-21T11:06:39.066Z,1014.23
2023-05-21T11:07:39.111Z,1014.22
2023-05-21T11:08:39.150Z,1014.22
2023-05-21T11:09:39.194Z,1014.22
2023-05-21T11:10:39.522Z,1014.25
2023-05-21T11:11:39.275Z,1014.27
2023-05-21T11:12:39.319Z,1014.25
2023-05-21T11:13:39.360Z,1014.24
2023-05-21T11:14:39.797Z,1014.24
2023-05-21T11:15:39.444Z,1014.25
2023-05-21T11:16:39.575Z,1014.34
2023-05-21T11:17:39.564Z,1014.25
2023-05-21T11:18:39.575Z,1014.24
2023-05-21T11:19:39.652Z,1014.29
2023-05-21T11:20:39.656Z,1014.25
2023-05-21T11:21:39.696Z,1014.17
2023-05-21T11:22:39.732Z,1014.19
2023-05-21T11:23:39.789Z,1014.23
2023-05-21T11:24:39.816Z,1014.25
2023-05-21T11:25:39.867Z,1014.20
2023-05-21T11:26:39.899Z,1014.16
2023-05-21T11:27:39.957Z,1014.16
2023-05-21T11:28:39.994Z,1014.21
2023-05-21T11:29:40.026Z,1014.13
2023-05-21T11:30:41.123Z,1014.18
2023-05-21T11:31:40.225Z,1014.15
2023-05-21T11:32:40.277Z,1014.18
2023-05-21T11:33:40.190Z,1014.21
2023-05-21T11:34:40.235Z,1014.21
2023-05-21T11:35:40.276Z,1014.19
2023-05-21T11:36:40.319Z,1014.07
2023-05-21T11:37:40.361Z,1014.09
2023-05-21T11:38:40.403Z,1014.15
2023-05-21T11:39:40.444Z,1014.09
2023-05-21T11:40:40.489Z,1014.09
2023-05-21T11:41:40.528Z,1014.25
2023-05-21T11:42:40.578Z,1014.16
2023-05-21T11:43:40.650Z,1014.09
2023-05-21T11:44:40.655Z,1014.15
2023-05-21T11:45:40.696Z,1014.12
2023-05-21T11:46:40.753Z,1014.09
2023-05-21T11:47:40.826Z,1014.11
2023-05-21T11:48:40.824Z,1014.18
2023-05-21T11:49:40.867Z,1014.17
2023-05-21T11:50:40.903Z,1014.11
2023-05-21T11:51:40.957Z,1014.08
2023-05-21T11:52:40.988Z,1014.10
2023-05-21T11:53:42.197Z,1014.06
2023-05-21T11:54:41.073Z,1014.04
2023-05-21T11:55:41.133Z,1014.03
2023-05-21T11:56:41.156Z,1014.13
2023-05-21T11:57:41.205Z,1014.07
2023-05-21T11:58:41.238Z,1014.13
2023-05-21T11:59:41.282Z,1014.06
2023-05-21T12:00:41.331Z,1014.06
2023-05-21T12:01:41.371Z,1014.03
2023-05-21T12:02:41.500Z,1014.02
2023-05-21T12:03:41.607Z,1014.05
2023-05-21T12:04:41.497Z,1014.06
2023-05-21T12:05:41.591Z,1014.06
2023-05-21T12:06:41.582Z,1014.09